createdAt,value
2023-03-29T04:00:48.426Z,99875.09
2023-03-29T04:05:10.159Z,99866.44
2023-03-29T04:09:14.613Z,99866.25
2023-03-29T04:13:20.672Z,99852.19
2023-03-29T04:18:01.973Z,99842.19
2023-03-29T04:22:09.416Z,99848.19
2023-03-29T04:26:13.624Z,99846.34
2023-03-29T04:30:23.532Z,99842.97
2023-03-29T04:34:51.204Z,99840.16
2023-03-29T04:38:53.749Z,99844.81
2023-03-29T04:42:56.292Z,99852.47
2023-03-29T04:46:58.807Z,99844.63
2023-03-29T04:51:08.734Z,99838.59
2023-03-29T04:55:12.313Z,99843.47
2023-03-29T04:59:37.970Z,99848.59
2023-03-29T05:03:50.848Z,99835.72
2023-03-29T05:08:01.530Z,99836.56
2023-03-29T05:12:12.927Z,99841.91
2023-03-29T05:16:34.622Z,99836.25
2023-03-29T05:20:38.348Z,99831.78
2023-03-29T05:24:43.223Z,99829.63
2023-03-29T05:28:50.849Z,99830.56
2023-03-29T05:32:53.938Z,99827.72
2023-03-29T05:37:01.434Z,99827.94
2023-03-29T05:41:11.641Z,99829.09
2023-03-29T05:45:17.356Z,99819.09
2023-03-29T05:49:21.447Z,99811.56
2023-03-29T05:53:45.219Z,99813.59
2023-03-29T05:57:49.224Z,99812.75
2023-03-29T06:01:54.122Z,99812.59
2023-03-29T06:05:59.090Z,99810.59
2023-03-29T06:10:02.763Z,99802.91
2023-03-29T06:14:06.701Z,99802.25
2023-03-29T06:18:11.678Z,99800.75
2023-03-29T06:22:15.012Z,99794.56
2023-03-29T06:26:18.934Z,99788.03
2023-03-29T06:30:24.878Z,99795.91
2023-03-29T06:34:29.702Z,99801.91
2023-03-29T06:38:45.859Z,99807.75
2023-03-29T06:42:57.836Z,99809.53
2023-03-29T06:47:20.769Z,99808.44
2023-03-29T06:51:23.609Z,99817.22
2023-03-29T06:55:28.682Z,99801.69
2023-03-29T06:59:33.828Z,99808.56
2023-03-29T07:03:49.374Z,99806.31
2023-03-29T07:07:56.526Z,99799.97
2023-03-29T07:12:11.091Z,99806.78
2023-03-29T07:16:14.606Z,99808.03
2023-03-29T07:20:27.570Z,99815.25
2023-03-29T07:24:40.047Z,99813.41
2023-03-29T07:28:43.124Z,99806.72
2023-03-29T07:32:47.302Z,99812.66
2023-03-29T07:37:01.522Z,99805.91
2023-03-29T07:41:05.778Z,99810.75
2023-03-29T07:45:26.756Z,99806.03
2023-03-29T07:49:36.433Z,99802.16
2023-03-29T07:53:40.440Z,99810.50
2023-03-29T07:57:56.529Z,99801.78
2023-03-29T08:01:59.311Z,99794.00
2023-03-29T08:06:07.918Z,99797.84
2023-03-29T08:10:15.253Z,99799.06
2023-03-29T08:14:31.548Z,99787.13
2023-03-29T08:18:39.743Z,99783.31
2023-03-29T08:22:43.101Z,99786.88
2023-03-29T08:27:01.433Z,99790.19
2023-03-29T08:31:04.204Z,99785.94
2023-03-29T08:35:09.643Z,99776.84
2023-03-29T08:39:19.641Z,99780.38
2023-03-29T08:43:57.988Z,99773.88
2023-03-29T08:48:28.369Z,99768.94
2023-03-29T08:52:35.506Z,99765.31
2023-03-29T08:56:51.291Z,99762.94
2023-03-29T09:01:08.558Z,99768.28
2023-03-29T09:05:27.910Z,99771.34
2023-03-29T09:09:41.657Z,99764.09
2023-03-29T09:14:04.964Z,99768.69
2023-03-29T09:18:16.689Z,99772.06
2023-03-29T09:22:25.007Z,99773.69
2023-03-29T09:26:36.019Z,99772.13
2023-03-29T09:31:07.837Z,99772.13
2023-03-29T09:35:18.433Z,99756.13
2023-03-29T09:39:23.388Z,99764.66
2023-03-29T09:43:36.124Z,99760.69
2023-03-29T09:47:45.922Z,99750.69
2023-03-29T09:51:51.269Z,99746.53
2023-03-29T09:55:56.014Z,99746.75
2023-03-29T10:00:17.667Z,99748.00
2023-03-29T10:04:22.161Z,99743.38
2023-03-29T10:08:39.665Z,99747.78
2023-03-29T10:12:50.451Z,99745.63
2023-03-29T10:16:57.240Z,99750.66
2023-03-29T10:21:02.591Z,99736.56
2023-03-29T10:25:14.437Z,99726.53
2023-03-29T10:29:17.336Z,99728.16
2023-03-29T10:33:23.971Z,99725.06
2023-03-29T10:37:29.478Z,99721.31
2023-03-29T10:41:35.029Z,99729.03
2023-03-29T10:45:39.993Z,99718.88
2023-03-29T10:49:44.984Z,99723.81
2023-03-29T10:53:48.094Z,99733.00
2023-03-29T10:58:03.868Z,99734.91
2023-03-29T11:02:38.434Z,99731.19
2023-03-29T11:06:48.227Z,99725.44
2023-03-29T11:11:01.306Z,99734.16
2023-03-29T11:15:34.208Z,99746.00
2023-03-29T11:19:49.260Z,99720.50
2023-03-29T11:24:06.495Z,99715.25
2023-03-29T11:28:18.351Z,99709.44
2023-03-29T11:32:29.372Z,99704.94
2023-03-29T11:36:38.870Z,99696.31
2023-03-29T11:40:51.439Z,99690.97
2023-03-29T11:44:57.875Z,99698.66
2023-03-29T11:49:05.955Z,99696.78
2023-03-29T11:53:12.578Z,99701.81
2023-03-29T11:57:22.085Z,99703.19
2023-03-29T12:01:34.214Z,99694.88
2023-03-29T12:05:43.779Z,99690.97
2023-03-29T12:09:51.439Z,99682.97
2023-03-29T12:13:58.468Z,99680.66
2023-03-29T12:18:15.004Z,99684.78
2023-03-29T12:22:18.966Z,99668.81
2023-03-29T12:26:36.532Z,99664.59
2023-03-29T12:30:47.916Z,99668.38
2023-03-29T12:35:06.989Z,99667.50
2023-03-29T12:39:43.179Z,99666.69
2023-03-29T12:44:05.827Z,99670.91
2023-03-29T12:48:20.712Z,99670.28
2023-03-29T12:52:28.210Z,99670.31
2023-03-29T12:56:41.848Z,99664.91
2023-03-29T13:00:46.269Z,99656.59
2023-03-29T13:04:54.336Z,99665.38
2023-03-29T13:09:02.820Z,99667.28
2023-03-29T13:13:19.860Z,99654.66
2023-03-29T13:17:38.122Z,99667.34
2023-03-29T13:21:50.237Z,99657.88
2023-03-29T13:26:11.283Z,99661.44
2023-03-29T13:30:24.248Z,99643.53
2023-03-29T13:34:37.666Z,99651.88
2023-03-29T13:38:49.226Z,99644.88
2023-03-29T13:42:59.593Z,99640.22
2023-03-29T13:47:06.729Z,99617.56
2023-03-29T13:51:22.577Z,99612.53
2023-03-29T13:55:28.083Z,99603.69
2023-03-29T13:59:49.115Z,99597.56
2023-03-29T14:03:53.534Z,99596.47
2023-03-29T14:07:56.439Z,99599.91
2023-03-29T14:12:00.259Z,99591.78
2023-03-29T14:16:07.588Z,99597.25
2023-03-29T14:20:16.625Z,99583.50
2023-03-29T14:24:22.355Z,99585.63
2023-03-29T14:28:27.022Z,99588.63
2023-03-29T14:32:31.382Z,99586.13
2023-03-29T14:36:35.381Z,99584.28
2023-03-29T14:40:38.012Z,99580.72
2023-03-29T14:44:40.983Z,99580.09
2023-03-29T14:48:44.725Z,99584.59
2023-03-29T14:52:52.386Z,99577.44
2023-03-29T14:56:55.464Z,99573.13
2023-03-29T15:00:58.320Z,99557.56
2023-03-29T15:05:04.671Z,99563.38
2023-03-29T15:09:12.939Z,99552.03
2023-03-29T15:13:20.916Z,99549.88
2023-03-29T15:17:47.633Z,99549.88
2023-03-29T15:21:53.196Z,99532.16
2023-03-29T15:25:59.264Z,99532.16
2023-03-29T15:30:03.557Z,99529.81
2023-03-29T15:34:09.397Z,99526.63
2023-03-29T15:38:13.988Z,99527.13
2023-03-29T15:42:17.881Z,99513.44
2023-03-29T15:46:20.410Z,99515.88
2023-03-29T15:50:23.410Z,99502.78
2023-03-29T15:54:26.321Z,99488.41
2023-03-29T15:58:32.127Z,99484.72
2023-03-29T16:02:35.426Z,99486.41
2023-03-29T16:06:37.894Z,99480.34
2023-03-29T16:10:41.420Z,99476.19
2023-03-29T16:14:45.333Z,99476.94
2023-03-29T16:18:48.012Z,99473.09
2023-03-29T16:22:51.296Z,99477.44
2023-03-29T16:26:56.008Z,99469.75
2023-03-29T16:31:00.306Z,99460.69
2023-03-29T16:35:04.530Z,99472.84
2023-03-29T16:39:07.264Z,99460.78
2023-03-29T16:43:14.905Z,99466.00
2023-03-29T16:47:18.696Z,99462.28
2023-03-29T16:51:21.311Z,99461.28
2023-03-29T16:55:23.882Z,99456.72
2023-03-29T16:59:27.034Z,99453.34
2023-03-29T17:03:31.065Z,99456.84
2023-03-29T17:07:33.632Z,99463.09
2023-03-29T17:11:36.475Z,99463.78
2023-03-29T17:15:39.910Z,99458.00
2023-03-29T17:19:43.966Z,99464.84
2023-03-29T17:23:46.459Z,99455.56
2023-03-29T17:27:49.669Z,99459.16
2023-03-29T17:31:52.219Z,99447.91
2023-03-29T17:35:56.437Z,99450.13
2023-03-29T17:39:59.006Z,99445.59
2023-03-29T17:44:02.100Z,99453.88
2023-03-29T17:48:06.540Z,99449.34
2023-03-29T17:52:10.739Z,99454.41
2023-03-29T17:56:13.299Z,99448.69
2023-03-29T18:00:17.131Z,99446.88
2023-03-29T18:04:19.645Z,99453.38
2023-03-29T18:08:23.494Z,99443.50
2023-03-29T18:12:26.735Z,99444.97
2023-03-29T18:16:29.929Z,99445.94
2023-03-29T18:20:32.682Z,99448.50
2023-03-29T18:24:36.623Z,99439.16
2023-03-29T18:28:39.190Z,99439.00
2023-03-29T18:32:41.751Z,99440.25
2023-03-29T18:36:44.374Z,99441.94
2023-03-29T18:40:48.815Z,99450.06
2023-03-29T18:44:52.158Z,99445.91
2023-03-29T18:48:54.686Z,99429.94
2023-03-29T18:52:57.172Z,99437.00
2023-03-29T18:57:01.337Z,99436.78
2023-03-29T19:01:05.893Z,99432.41
2023-03-29T19:05:09.232Z,99427.44
2023-03-29T19:09:11.788Z,99435.94
2023-03-29T19:13:15.644Z,99426.13
2023-03-29T19:17:18.273Z,99432.16
2023-03-29T19:21:21.942Z,99420.09
2023-03-29T19:25:24.514Z,99421.53
2023-03-29T19:29:28.356Z,99414.88
2023-03-29T19:33:31.074Z,99419.69
2023-03-29T19:37:33.617Z,99418.03
2023-03-29T19:41:37.842Z,99409.13
2023-03-29T19:45:42.448Z,99402.69
2023-03-29T19:49:46.131Z,99401.22
2023-03-29T19:53:48.649Z,99399.94
2023-03-29T19:57:51.225Z,99384.19
2023-03-29T20:01:56.811Z,99375.22
2023-03-29T20:05:59.572Z,99386.63
2023-03-29T20:10:02.261Z,99377.69
2023-03-29T20:14:05.556Z,99387.63
2023-03-29T20:18:09.464Z,99389.09
2023-03-29T20:22:12.817Z,99374.25
2023-03-29T20:26:15.436Z,99365.75
2023-03-29T20:30:18.230Z,99349.38
2023-03-29T20:34:23.403Z,99345.16
2023-03-29T20:38:25.938Z,99334.19
2023-03-29T20:42:28.626Z,99355.41
2023-03-29T20:46:34.140Z,99344.88
2023-03-29T20:50:38.966Z,99322.19
2023-03-29T20:54:41.833Z,99288.75
2023-03-29T20:58:44.371Z,99311.84
